Time;durP1;ratioP1;P1;durP2;ratioP2;P2;SDS_P1;SDS_P2;PMS_P1;PMS_P2;Temp;Humidity;BMP_temperature;BMP_pressure;BME280_temperature;BME280_humidity;BME280_pressure;Samples;Min_cycle;Max_cycle;Signal;HPM_P1;HPM_P2
2022/10/10 00:01:34;;;;;;;9.65;4.40;;;;;;;;;;5070386;28;20127;-73
2022/10/10 00:04:00;;;;;;;5.80;4.03;;;;;;;;;;5070853;28;20044;-73
2022/10/10 00:06:27;;;;;;;11.32;4.30;;;;;;;;;;5070102;28;20036;-73
2022/10/10 00:08:52;;;;;;;8.98;4.32;;;;;;;;;;5069918;28;20048;-74
2022/10/10 00:11:20;;;;;;;7.43;3.92;;;;;;;;;;5070078;28;20059;-73
2022/10/10 00:13:49;;;;;;;5.50;3.70;;;;;;;;;;5086608;28;20037;-74
2022/10/10 00:16:15;;;;;;;7.45;4.03;;;;;;;;;;5070616;28;20075;-73
2022/10/10 00:18:41;;;;;;;9.60;3.92;;;;;;;;;;5070136;28;20386;-73
2022/10/10 00:21:08;;;;;;;6.05;4.15;;;;;;;;;;5071417;28;20113;-73
2022/10/10 00:23:34;;;;;;;5.32;3.45;;;;;;;;;;5086830;28;20072;-75
2022/10/10 00:26:00;;;;;;;11.95;4.57;;;;;;;;;;5086556;28;20476;-74
2022/10/10 00:28:26;;;;;;;6.82;3.92;;;;;;;;;;5071062;28;20044;-73
2022/10/10 00:30:52;;;;;;;8.00;4.60;;;;;;;;;;5086648;28;20076;-74
2022/10/10 00:33:18;;;;;;;5.78;4.00;;;;;;;;;;5050168;28;20068;-74
2022/10/10 00:35:45;;;;;;;9.23;4.10;;;;;;;;;;5050881;28;20037;-74
2022/10/10 00:38:11;;;;;;;7.82;4.53;;;;;;;;;;5049765;28;20045;-73
2022/10/10 00:40:44;;;;;;;7.18;4.50;;;;;;;;;;5052454;28;20041;-73
2022/10/10 00:43:12;;;;;;;9.50;4.05;;;;;;;;;;5063627;28;20060;-73
2022/10/10 00:45:39;;;;;;;9.95;4.25;;;;;;;;;;5072903;28;20044;-74
2022/10/10 00:48:07;;;;;;;7.15;4.22;;;;;;;;;;5072774;28;20040;-75
2022/10/10 00:50:35;;;;;;;7.10;4.18;;;;;;;;;;5090269;28;20111;-74
2022/10/10 00:53:02;;;;;;;6.05;4.22;;;;;;;;;;5073011;28;20660;-74
2022/10/10 00:55:28;;;;;;;10.73;4.47;;;9.50;99.90;;;;;;5074179;28;20032;-74
2022/10/10 00:57:54;;;;;;;8.23;4.32;;;9.50;99.90;;;;;;5056224;28;20029;-73
2022/10/10 01:00:20;;;;;;;10.02;4.72;;;9.40;99.90;;;;;;5073349;28;20106;-74
2022/10/10 01:02:45;;;;;;;7.85;4.90;;;9.50;99.90;;;;;;5071979;28;20043;-73
2022/10/10 01:05:12;;;;;;;9.40;4.43;;;;;;;;;;5073337;28;20028;-73
2022/10/10 01:07:38;;;;;;;13.18;4.55;;;9.40;99.90;;;;;;5072958;28;20064;-73
2022/10/10 01:10:16;;;;;;;8.35;4.88;;;9.30;99.90;;;;;;5056053;28;20108;-73
2022/10/10 01:13:03;;;;;;;7.22;4.10;;;;;;;;;;5073960;28;20131;-73
2022/10/10 01:15:37;;;;;;;8.43;4.50;;;;;;;;;;5073620;28;20540;-74
2022/10/10 01:18:12;;;;;;;5.47;4.43;;;;;;;;;;5072924;28;20045;-74
2022/10/10 01:20:48;;;;;;;7.65;4.22;;;;;;;;;;5055570;28;20064;-73
2022/10/10 01:23:20;;;;;;;8.07;4.43;;;;;;;;;;5072134;28;20032;-73
2022/10/10 01:25:57;;;;;;;8.68;4.57;;;;;;;;;;5073371;28;20047;-74
2022/10/10 01:28:39;;;;;;;5.88;4.95;;;;;;;;;;5072465;28;20132;-73
2022/10/10 01:31:08;;;;;;;6.95;4.53;;;;;;;;;;5072562;28;20076;-75
2022/10/10 01:33:48;;;;;;;11.90;4.88;;;;;;;;;;5073578;28;20036;-74
2022/10/10 01:36:34;;;;;;;7.35;4.57;;;;;;;;;;5073431;28;20185;-73
2022/10/10 01:39:02;;;;;;;7.07;4.55;;;;;;;;;;5072729;28;20547;-74
2022/10/10 01:41:41;;;;;;;10.93;4.95;;;9.30;99.90;;;;;;5073585;28;20075;-74
2022/10/10 01:44:07;;;;;;;7.65;4.57;;;9.30;99.90;;;;;;5073559;28;20045;-73
2022/10/10 01:46:33;;;;;;;7.40;4.72;;;9.20;99.90;;;;;;5073651;28;20041;-74
2022/10/10 01:49:00;;;;;;;8.23;4.70;;;9.20;99.90;;;;;;5072184;28;20048;-73
2022/10/10 01:51:40;;;;;;;7.38;5.22;;;9.20;99.90;;;;;;5072874;28;20051;-73
2022/10/10 01:54:15;;;;;;;9.18;5.72;;;;;;;;;;5071679;28;20032;-73
2022/10/10 01:57:07;;;;;;;9.80;5.65;;;9.10;99.90;;;;;;5072148;28;20413;-73
2022/10/10 01:59:44;;;;;;;8.18;5.05;;;9.10;99.90;;;;;;5025359;28;20079;-74
2022/10/10 02:02:39;;;;;;;7.45;5.03;;;8.90;99.90;;;;;;5071951;28;20461;-74
2022/10/10 02:05:05;;;;;;;8.25;4.90;;;;;;;;;;5074122;28;20036;-74
2022/10/10 02:07:48;;;;;;;11.82;4.72;;;8.80;99.90;;;;;;5071509;28;20046;-73
2022/10/10 02:10:19;;;;;;;14.73;5.93;;;9.00;99.90;;;;;;5072834;28;20141;-73
2022/10/10 02:12:47;;;;;;;11.20;4.90;;;8.90;99.90;;;;;;5071980;28;20120;-74
2022/10/10 02:15:15;;;;;;;9.18;5.53;;;8.90;99.90;;;;;;5071316;28;20040;-73
2022/10/10 02:17:44;;;;;;;7.32;4.95;;;8.80;99.90;;;;;;5071684;28;20044;-73
2022/10/10 02:20:12;;;;;;;12.60;5.18;;;9.00;99.90;;;;;;5071823;28;20052;-73
2022/10/10 02:22:40;;;;;;;5.07;4.10;;;8.80;99.90;;;;;;5071594;28;20051;-73
2022/10/10 02:25:06;;;;;;;10.15;5.22;;;8.90;99.90;;;;;;5071034;28;20051;-73
2022/10/10 02:28:03;;;;;;;7.70;5.03;;;8.90;99.90;;;;;;5071479;28;20040;-73
2022/10/10 02:30:29;;;;;;;9.88;5.55;;;8.80;99.90;;;;;;5069265;28;20048;-74
2022/10/10 02:33:00;;;;;;;7.38;4.93;;;8.80;99.90;;;;;;5072692;28;20116;-74
2022/10/10 02:35:34;;;;;;;6.72;5.35;;;8.70;99.90;;;;;;5054856;28;20033;-74
2022/10/10 02:38:02;;;;;;;11.40;5.70;;;8.90;99.90;;;;;;5072153;28;20046;-73
2022/10/10 02:40:31;;;;;;;8.68;5.28;;;8.90;99.90;;;;;;5071485;28;20090;-73
2022/10/10 02:42:59;;;;;;;7.18;5.07;;;8.70;99.90;;;;;;5054504;28;20636;-73
2022/10/10 02:45:27;;;;;;;10.73;5.93;;;8.80;99.90;;;;;;5070703;28;20046;-74
2022/10/10 02:47:53;;;;;;;7.82;5.40;;;9.20;99.90;;;;;;5071415;28;20036;-73
2022/10/10 02:50:20;;;;;;;7.25;5.35;;;8.70;99.90;;;;;;5070931;28;20700;-73
2022/10/10 02:52:46;;;;;;;9.23;5.10;;;;;;;;;;5072512;28;20067;-74
2022/10/10 02:55:12;;;;;;;10.82;6.13;;;;;;;;;;5070599;28;20414;-74
2022/10/10 02:57:38;;;;;;;7.05;5.40;;;;;;;;;;5053985;28;20043;-73
2022/10/10 03:00:05;;;;;;;7.57;5.15;;;;;;;;;;5070940;28;20043;-73
2022/10/10 03:02:31;;;;;;;7.15;4.97;;;;;;;;;;5069914;28;20045;-74
2022/10/10 03:04:57;;;;;;;8.73;5.28;;;;;;;;;;5070588;28;20040;-74
2022/10/10 03:07:23;;;;;;;6.47;5.68;;;;;;;;;;5072328;28;20040;-74
2022/10/10 03:09:50;;;;;;;7.72;5.40;;;8.60;99.90;;;;;;5072235;28;20045;-73
2022/10/10 03:12:16;;;;;;;9.98;5.35;;;8.50;99.90;;;;;;5070450;28;20086;-73
2022/10/10 03:14:42;;;;;;;9.73;5.20;;;8.70;99.90;;;;;;5053521;28;20036;-73
2022/10/10 03:17:08;;;;;;;7.28;6.03;;;8.50;99.90;;;;;;5072107;28;20407;-73
2022/10/10 03:19:33;;;;;;;9.98;5.72;;;8.60;99.90;;;;;;5070899;28;20094;-73
2022/10/10 03:21:59;;;;;;;8.15;5.28;;;;;;;;;;5070562;28;20040;-74
2022/10/10 03:24:26;;;;;;;6.13;5.40;;;;;;;;;;5069646;28;20043;-74
2022/10/10 03:26:52;;;;;;;10.05;6.10;;;;;;;;;;5059857;28;20037;-74
2022/10/10 03:29:18;;;;;;;7.72;5.95;;;;;;;;;;5072039;28;20489;-74
2022/10/10 03:31:43;;;;;;;6.47;5.00;;;8.50;99.90;;;;;;5073635;28;20032;-73
2022/10/10 03:34:09;;;;;;;8.63;6.18;;;8.60;99.90;;;;;;5059041;28;20667;-73
2022/10/10 03:36:35;;;;;;;10.20;5.65;;;8.40;99.90;;;;;;5050978;28;20036;-73
2022/10/10 03:39:01;;;;;;;8.30;6.00;;;;;;;;;;5051780;28;20040;-74
2022/10/10 03:41:27;;;;;;;11.30;5.28;;;;;;;;;;5068319;28;20490;-73
2022/10/10 03:43:52;;;;;;;9.75;5.65;;;8.50;99.90;;;;;;5070182;28;20032;-73
2022/10/10 03:46:19;;;;;;;9.02;5.45;;;;;;;;;;5071722;28;20501;-75
2022/10/10 03:48:45;;;;;;;9.20;5.47;;;8.40;99.90;;;;;;5071398;28;20051;-73
2022/10/10 03:51:11;;;;;;;8.75;5.28;;;8.60;99.90;;;;;;5071920;28;20028;-73
2022/10/10 03:53:37;;;;;;;15.57;6.20;;;;;;;;;;5071734;28;20397;-73
2022/10/10 03:56:03;;;;;;;7.78;5.70;;;;;;;;;;5071330;28;20035;-73
2022/10/10 03:58:29;;;;;;;7.80;5.05;;;;;;;;;;5071544;28;20052;-73
2022/10/10 04:00:55;;;;;;;9.35;6.95;;;;;;;;;;5070228;28;20040;-73
2022/10/10 04:03:22;;;;;;;8.05;5.32;;;8.50;99.90;;;;;;5070349;28;20041;-74
2022/10/10 04:05:48;;;;;;;11.00;5.75;;;;;;;;;;5069958;28;20463;-74
2022/10/10 04:08:14;;;;;;;9.77;5.90;;;;;;;;;;5071554;28;20036;-74
2022/10/10 04:10:39;;;;;;;9.65;5.32;;;;;;;;;;5070043;28;20033;-73
2022/10/10 04:13:05;;;;;;;6.60;5.28;;;8.50;99.90;;;;;;5070831;28;20120;-73
2022/10/10 04:15:31;;;;;;;13.63;5.53;;;;;;;;;;5074882;28;20040;-73
2022/10/10 04:17:57;;;;;;;11.63;6.65;;;;;;;;;;5075154;28;20037;-73
2022/10/10 04:20:24;;;;;;;9.27;5.88;;;;;;;;;;5073668;28;20082;-73
2022/10/10 04:22:49;;;;;;;8.93;5.68;;;8.40;99.90;;;;;;5074310;28;20055;-73
2022/10/10 04:25:15;;;;;;;7.80;5.60;;;8.40;99.90;;;;;;5056908;28;20044;-73
2022/10/10 04:27:42;;;;;;;8.90;6.20;;;;;;;;;;5073363;28;20033;-74
2022/10/10 04:30:09;;;;;;;7.72;5.50;;;8.40;99.90;;;;;;5073616;28;20045;-73
2022/10/10 04:32:35;;;;;;;9.02;6.18;;;;;;;;;;5073528;28;20041;-75
2022/10/10 04:35:01;;;;;;;8.93;6.18;;;;;;;;;;5074484;28;20024;-73
2022/10/10 04:37:27;;;;;;;9.15;6.53;;;;;;;;;;5073466;28;20044;-73
2022/10/10 04:39:52;;;;;;;12.23;6.32;;;8.30;99.90;;;;;;5074839;28;20513;-73
2022/10/10 04:42:18;;;;;;;11.80;5.82;;;8.20;99.90;;;;;;5073455;28;20068;-73
2022/10/10 04:44:44;;;;;;;8.60;5.47;;;;;;;;;;5056304;28;20032;-72
2022/10/10 04:47:11;;;;;;;10.23;6.47;;;8.40;99.90;;;;;;5074732;28;20127;-73
2022/10/10 04:49:37;;;;;;;12.98;5.68;;;;;;;;;;5073077;28;20041;-73
2022/10/10 04:52:03;;;;;;;8.23;5.57;;;;;;;;;;5073240;28;20076;-73
2022/10/10 04:54:29;;;;;;;8.27;5.85;;;8.30;99.90;;;;;;5063108;28;20574;-73
2022/10/10 04:56:54;;;;;;;7.75;5.35;;;8.30;99.90;;;;;;5054628;28;20141;-73
2022/10/10 04:59:20;;;;;;;9.50;6.68;;;;;;;;;;5057231;28;20085;-73
2022/10/10 05:01:46;;;;;;;7.10;5.07;;;;;;;;;;5073267;28;20133;-73
2022/10/10 05:04:13;;;;;;;6.50;4.85;;;;;;;;;;5073614;28;20036;-73
2022/10/10 05:06:39;;;;;;;9.15;6.00;;;8.40;99.90;;;;;;5074887;28;20402;-73
2022/10/10 05:09:05;;;;;;;10.20;5.85;;;;;;;;;;5072970;28;20036;-73
2022/10/10 05:11:31;;;;;;;10.35;6.28;;;;;;;;;;5072862;28;20036;-74
2022/10/10 05:13:57;;;;;;;8.32;6.07;;;;;;;;;;5073560;28;20036;-75
2022/10/10 05:16:22;;;;;;;8.98;6.05;;;8.30;99.90;;;;;;5072929;28;20058;-73
2022/10/10 05:18:48;;;;;;;7.82;6.18;;;;;;;;;;5072972;28;20054;-73
2022/10/10 05:21:14;;;;;;;10.30;7.20;;;8.40;99.90;;;;;;5072713;28;20502;-73
2022/10/10 05:23:40;;;;;;;10.40;6.10;;;;;;;;;;5074076;28;20076;-73
2022/10/10 05:26:07;;;;;;;10.85;5.70;;;8.40;99.90;;;;;;5073128;28;20120;-73
2022/10/10 05:28:36;;;;;;;8.05;5.45;;;;;;;;;;5073980;28;20033;-73
2022/10/10 05:31:03;;;;;;;8.85;5.75;;;8.20;99.90;;;;;;5072549;28;20039;-73
2022/10/10 05:33:29;;;;;;;9.77;5.88;;;;;;;;;;5073286;28;20036;-73
2022/10/10 05:36:21;;;;;;;8.48;5.28;;;8.30;99.90;;;;;;5055714;28;20131;-73
2022/10/10 05:38:47;;;;;;;10.35;5.97;;;;;;;;;;5069878;28;20105;-73
2022/10/10 05:41:12;;;;;;;8.75;5.97;;;8.40;99.90;;;;;;5055497;28;20040;-74
2022/10/10 05:43:38;;;;;;;10.05;6.05;;;8.30;99.90;;;;;;5073262;28;20079;-73
2022/10/10 05:46:04;;;;;;;10.80;6.22;;;;;;;;;;5072211;28;20044;-73
2022/10/10 05:48:30;;;;;;;9.32;6.55;;;8.50;99.90;;;;;;5072026;28;20064;-73
2022/10/10 05:50:57;;;;;;;12.98;5.82;;;;;;;;;;5073645;28;20500;-73
2022/10/10 05:53:25;;;;;;;8.35;5.35;;;8.40;99.90;;;;;;5059865;28;20047;-74
2022/10/10 05:55:51;;;;;;;8.73;5.93;;;;;;;;;;5076703;28;20040;-74
2022/10/10 05:58:17;;;;;;;11.98;6.07;;;;;;;;;;5073273;28;20076;-74
2022/10/10 06:00:45;;;;;;;12.45;5.88;;;8.30;99.90;;;;;;5074664;28;20490;-73
2022/10/10 06:03:13;;;;;;;8.98;5.57;;;;;;;;;;5068709;28;20036;-73
2022/10/10 06:05:40;;;;;;;8.98;5.80;;;8.60;99.90;;;;;;5065907;28;20117;-73
2022/10/10 06:08:07;;;;;;;9.73;5.47;;;;;;;;;;5053811;28;20123;-75
2022/10/10 06:10:41;;;;;;;12.38;7.00;;;8.50;99.90;;;;;;5059453;28;20087;-73
2022/10/10 06:13:07;;;;;;;7.50;5.25;;;;;;;;;;5043986;28;20033;-74
2022/10/10 06:15:33;;;;;;;10.27;6.32;;;;;;;;;;5058467;28;20071;-73
2022/10/10 06:17:59;;;;;;;10.63;6.15;;;;;;;;;;5069935;28;20075;-73
2022/10/10 06:20:25;;;;;;;9.95;6.03;;;;;;;;;;5064789;28;20505;-74
2022/10/10 06:22:51;;;;;;;10.45;6.88;;;;;;;;;;5057550;28;20055;-75
2022/10/10 06:25:17;;;;;;;12.15;7.25;;;;;;;;;;5058440;28;20119;-74
2022/10/10 06:27:43;;;;;;;11.65;6.03;;;;;;;;;;5054590;28;20557;-73
2022/10/10 06:30:09;;;;;;;11.80;5.93;;;;;;;;;;5056490;28;20049;-74
2022/10/10 06:32:35;;;;;;;10.77;6.50;;;8.80;99.90;;;;;;5063455;28;20043;-74
2022/10/10 06:35:01;;;;;;;11.40;6.70;;;;;;;;;;5066877;28;20037;-73
2022/10/10 06:37:27;;;;;;;8.27;5.82;;;;;;;;;;5060124;28;20499;-73
2022/10/10 06:39:53;;;;;;;10.27;6.40;;;;;;;;;;5064491;28;20052;-73
2022/10/10 06:42:19;;;;;;;11.07;6.07;;;;;;;;;;5060540;28;20044;-74
2022/10/10 06:44:44;;;;;;;11.15;5.68;;;8.90;99.90;;;;;;5062644;28;20525;-74
2022/10/10 06:47:11;;;;;;;8.95;5.47;;;;;;;;;;5067484;28;20041;-74
2022/10/10 06:49:37;;;;;;;7.82;5.93;;;8.90;99.90;;;;;;5064205;28;20041;-74
2022/10/10 06:52:03;;;;;;;10.95;7.35;;;;;;;;;;5055750;28;21275;-75
2022/10/10 06:54:29;;;;;;;13.13;6.65;;;;;;;;;;5055176;28;20087;-74
2022/10/10 06:56:55;;;;;;;10.07;6.10;;;;;;;;;;5069736;28;20072;-74
2022/10/10 06:59:21;;;;;;;11.77;6.68;;;;;;;;;;5071287;28;20040;-74
2022/10/10 07:01:47;;;;;;;14.88;6.80;;;;;;;;;;5068371;28;20040;-74
2022/10/10 07:04:14;;;;;;;14.60;6.78;;;;;;;;;;5066505;28;20542;-76
2022/10/10 07:06:39;;;;;;;16.38;6.70;;;9.30;99.90;;;;;;5067085;28;20047;-74
2022/10/10 07:09:05;;;;;;;10.80;6.53;;;;;;;;;;5069373;28;20411;-74
2022/10/10 07:11:31;;;;;;;12.25;6.32;;;9.40;99.90;;;;;;5063877;28;20039;-74
2022/10/10 07:13:57;;;;;;;15.30;5.95;;;9.30;99.90;;;;;;5069254;28;20040;-74
2022/10/10 07:16:23;;;;;;;8.88;6.30;;;9.30;99.90;;;;;;5070172;28;20032;-74
2022/10/10 07:18:48;;;;;;;12.80;6.40;;;9.30;99.90;;;;;;5070389;28;20047;-74
2022/10/10 07:21:15;;;;;;;11.13;6.68;;;9.30;99.90;;;;;;5065800;28;20498;-75
2022/10/10 07:23:41;;;;;;;10.52;7.07;;;;;;;;;;5055566;28;20585;-75
2022/10/10 07:26:11;;;;;;;9.65;6.60;;;9.70;99.90;;;;;;5070098;28;20551;-75
2022/10/10 07:28:38;;;;;;;13.82;6.68;;;9.70;99.90;;;;;;5070883;28;20036;-74
2022/10/10 07:31:07;;;;;;;8.98;5.75;;;9.60;99.90;;;;;;5069975;28;20033;-74
2022/10/10 07:33:42;;;;;;;10.20;6.70;;;9.90;99.90;;;;;;5074245;28;20085;-75
2022/10/10 07:36:08;;;;;;;8.00;5.78;;;;;;;;;;5052610;28;20029;-75
2022/10/10 07:38:35;;;;;;;13.40;5.57;;;10.00;99.90;;;;;;5074101;28;20048;-75
2022/10/10 07:41:05;;;;;;;13.18;7.10;;;10.20;99.90;;;;;;5068995;28;20040;-75
2022/10/10 07:43:30;;;;;;;10.93;6.45;;;10.30;99.90;;;;;;5052866;28;20051;-75
2022/10/10 07:45:56;;;;;;;9.95;6.35;;;10.40;99.90;;;;;;5070177;28;20044;-75
2022/10/10 07:48:22;;;;;;;9.20;5.95;;;;;;;;;;5067755;28;20032;-76
2022/10/10 07:50:48;;;;;;;10.65;5.57;;;;;;;;;;5073882;28;20168;-74
2022/10/10 07:53:13;;;;;;;10.50;6.22;;;10.70;99.90;;;;;;5073702;28;20168;-75
2022/10/10 07:55:41;;;;;;;12.65;6.65;;;10.80;99.90;;;;;;5073322;28;20039;-75
2022/10/10 07:58:09;;;;;;;14.15;7.78;;;11.00;99.90;;;;;;5074263;28;20513;-75
2022/10/10 08:00:36;;;;;;;11.68;6.43;;;;;;;;;;5074067;28;20040;-76
2022/10/10 08:03:01;;;;;;;9.73;6.78;;;11.20;99.90;;;;;;5074528;28;20421;-74
2022/10/10 08:05:28;;;;;;;12.30;6.75;;;;;;;;;;5084285;22;20052;-70
2022/10/10 08:07:53;;;;;;;14.85;7.53;;;11.30;99.90;;;;;;5051907;28;20039;-72
2022/10/10 08:10:19;;;;;;;9.07;6.65;;;;;;;;;;5053817;28;20033;-73
2022/10/10 08:12:45;;;;;;;14.15;6.93;;;;;;;;;;5052254;28;20051;-74
2022/10/10 08:15:11;;;;;;;12.38;7.18;;;11.40;99.90;;;;;;5050061;28;20317;-74
2022/10/10 08:17:37;;;;;;;13.90;7.10;;;11.40;99.90;;;;;;5052995;28;20037;-74
2022/10/10 08:20:04;;;;;;;12.80;6.40;;;11.50;99.90;;;;;;5050181;28;20129;-74
2022/10/10 08:22:29;;;;;;;16.25;7.00;;;11.50;99.90;;;;;;5052032;28;20112;-74
2022/10/10 08:24:55;;;;;;;14.50;7.25;;;11.40;99.90;;;;;;5051645;28;20124;-74
2022/10/10 08:27:21;;;;;;;9.85;6.35;;;11.70;99.90;;;;;;5053093;28;20045;-74
2022/10/10 08:29:47;;;;;;;9.80;6.70;;;11.60;99.90;;;;;;5051648;28;20560;-74
2022/10/10 08:32:13;;;;;;;12.85;6.80;;;;;;;;;;5053220;28;20037;-74
2022/10/10 08:34:39;;;;;;;12.50;8.52;;;;;;;;;;5051104;28;20033;-74
2022/10/10 08:37:04;;;;;;;10.02;6.53;;;11.60;99.90;;;;;;5051710;28;20051;-74
2022/10/10 08:39:31;;;;;;;11.13;7.15;;;11.80;99.90;;;;;;5053371;28;20111;-74
2022/10/10 08:41:59;;;;;;;11.63;7.57;;;12.10;99.90;;;;;;5035905;28;20037;-74
2022/10/10 08:44:42;;;;;;;10.15;7.65;;;11.90;99.90;;;;;;5051595;28;20072;-74
2022/10/10 08:47:23;;;;;;;13.25;7.40;;;12.20;99.90;;;;;;5052682;28;20086;-74
2022/10/10 08:50:01;;;;;;;15.35;7.60;;;12.20;99.90;;;;;;5053019;28;20120;-72
2022/10/10 08:52:47;;;;;;;10.63;6.68;;;12.00;99.90;;;;;;5053345;28;20041;-73
2022/10/10 08:55:29;;;;;;;12.15;7.70;;;12.00;99.90;;;;;;5053151;28;20045;-72
2022/10/10 08:58:13;;;;;;;10.55;7.15;;;12.10;99.90;;;;;;5053843;28;20040;-72
2022/10/10 09:00:49;;;;;;;12.23;8.48;;;12.10;99.90;;;;;;5051553;28;20736;-73
2022/10/10 09:03:27;;;;;;;13.10;7.57;;;12.20;99.90;;;;;;5053977;28;20434;-72
2022/10/10 09:06:12;;;;;;;13.10;7.35;;;12.20;99.90;;;;;;5052854;28;20041;-72
2022/10/10 09:08:57;;;;;;;9.52;7.22;;;12.40;99.90;;;;;;5035844;28;20041;-71
2022/10/10 09:11:55;;;;;;;10.90;7.65;;;12.50;99.90;;;;;;5052017;28;20037;-72
2022/10/10 09:14:28;;;;;;;16.98;8.10;;;12.20;99.90;;;;;;5032387;28;20041;-72
2022/10/10 09:16:59;;;;;;;13.93;8.53;;;12.60;99.90;;;;;;5052623;28;20084;-75
2022/10/10 09:19:53;;;;;;;11.23;7.57;;;12.50;99.90;;;;;;5051077;28;20468;-73
2022/10/10 09:22:24;;;;;;;11.00;7.07;;;12.50;99.90;;;;;;5050301;28;20131;-72
2022/10/10 09:24:56;;;;;;;22.45;8.45;;;12.50;99.90;;;;;;5052299;28;20091;-72
2022/10/10 09:27:26;;;;;;;14.57;7.90;;;12.80;99.90;;;;;;5033175;28;20125;-75
2022/10/10 09:30:08;;;;;;;16.63;8.20;;;12.90;99.90;;;;;;5053488;28;20076;-75
2022/10/10 09:32:47;;;;;;;16.27;9.25;;;12.80;99.90;;;;;;5051797;28;20049;-72
2022/10/10 09:35:25;;;;;;;13.23;7.90;;;13.20;99.90;;;;;;5051087;28;20033;-73
2022/10/10 09:38:30;;;;;;;12.85;8.48;;;13.10;99.90;;;;;;5051095;28;20029;-72
2022/10/10 09:41:07;;;;;;;19.10;9.05;;;13.20;99.90;;;;;;5052617;28;20514;-73
2022/10/10 09:43:33;;;;;;;14.07;7.60;;;13.10;99.90;;;;;;5052859;28;20040;-73
2022/10/10 09:46:00;;;;;;;14.80;7.80;;;;;;;;;;5053212;28;20037;-73
2022/10/10 09:48:32;;;;;;;15.15;8.13;;;13.30;99.90;;;;;;5052154;28;20052;-74
2022/10/10 09:50:59;;;;;;;13.73;7.97;;;13.50;99.90;;;;;;5054602;28;20040;-72
2022/10/10 09:53:25;;;;;;;16.83;8.50;;;13.50;99.90;;;;;;5063281;28;20048;-75
2022/10/10 09:55:52;;;;;;;14.30;8.65;;;13.30;99.90;;;;;;5063207;28;20037;-75
2022/10/10 09:58:36;;;;;;;15.02;8.68;;;13.20;99.90;;;;;;5058828;28;20579;-74
2022/10/10 10:01:17;;;;;;;14.18;8.48;;;13.30;99.90;;;;;;5051145;28;20025;-73
2022/10/10 10:03:43;;;;;;;11.48;9.00;;;13.50;99.90;;;;;;5052812;28;20091;-73
2022/10/10 10:06:14;;;;;;;13.95;8.20;;;13.70;99.90;;;;;;5052177;28;20483;-73
2022/10/10 10:08:41;;;;;;;16.67;9.13;;;13.80;99.90;;;;;;5051608;28;20468;-73
2022/10/10 10:11:30;;;;;;;15.32;7.95;;;14.00;99.90;;;;;;5034242;28;20445;-73
2022/10/10 10:13:58;;;;;;;10.80;7.82;;;14.50;99.90;;;;;;5033873;28;20087;-74
2022/10/10 10:16:39;;;;;;;11.98;8.18;;;14.60;99.90;;;;;;5050979;28;20037;-74
2022/10/10 10:19:36;;;;;;;13.40;8.10;;;14.40;99.90;;;;;;5050339;28;20041;-74
2022/10/10 10:22:02;;;;;;;14.80;8.65;;;;;;;;;;5050483;28;20033;-74
2022/10/10 10:24:37;;;;;;;10.75;7.90;;;14.30;99.90;;;;;;5049931;28;20411;-73
2022/10/10 10:27:16;;;;;;;15.23;8.32;;;14.40;99.90;;;;;;5049853;28;20555;-73
2022/10/10 10:29:56;;;;;;;18.67;7.93;;;14.40;99.90;;;;;;5052308;28;20227;-73
2022/10/10 10:33:03;;;;;;;14.60;8.57;;;14.40;99.90;;;;;;5051003;28;20052;-71
2022/10/10 10:35:39;;;;;;;14.25;8.43;;;14.20;99.90;;;;;;5027884;28;20045;-72
2022/10/10 10:38:26;;;;;;;10.02;7.25;;;14.10;99.90;;;;;;5050792;28;20091;-72
2022/10/10 10:41:04;;;;;;;17.08;8.30;;;14.30;99.90;;;;;;5052143;28;20112;-72
2022/10/10 10:43:42;;;;;;;13.80;7.88;;;14.00;99.90;;;;;;5049749;28;20052;-72
2022/10/10 10:46:21;;;;;;;15.23;8.73;;;14.00;99.90;;;;;;5034140;28;20080;-73
2022/10/10 10:48:47;;;;;;;13.02;8.32;;;;;;;;;;5050268;28;20080;-72
2022/10/10 10:51:31;;;;;;;10.60;7.30;;;14.00;99.90;;;;;;5050520;28;20569;-73
2022/10/10 10:54:10;;;;;;;13.07;8.05;;;13.90;99.90;;;;;;5050119;28;20090;-73
2022/10/10 10:56:49;;;;;;;15.80;8.88;;;13.60;99.90;;;;;;5033278;28;20060;-73
2022/10/10 10:59:35;;;;;;;13.57;8.75;;;13.60;99.90;;;;;;5049864;28;20410;-73
2022/10/10 11:02:06;;;;;;;16.95;9.23;;;13.50;99.90;;;;;;5045502;28;20055;-73
2022/10/10 11:04:38;;;;;;;15.55;9.27;;;13.60;99.90;;;;;;5046796;28;20048;-73
2022/10/10 11:07:25;;;;;;;13.25;8.80;;;13.70;99.90;;;;;;5038810;28;20563;-73
2022/10/10 11:10:18;;;;;;;15.95;9.80;;;13.60;99.90;;;;;;5044187;28;20079;-73
2022/10/10 11:12:56;;;;;;;12.80;9.40;;;13.40;99.90;;;;;;5044370;28;20041;-73
2022/10/10 11:15:35;;;;;;;21.60;9.65;;;13.40;99.90;;;;;;5046869;28;20047;-74
2022/10/10 11:18:17;;;;;;;12.77;9.65;;;13.60;99.90;;;;;;5045700;28;20033;-73
2022/10/10 11:20:50;;;;;;;17.63;9.90;;;13.50;99.90;;;;;;5027075;28;20121;-72
2022/10/10 11:23:23;;;;;;;18.02;9.55;;;13.50;99.90;;;;;;5044748;28;20056;-72
2022/10/10 11:25:55;;;;;;;12.23;8.70;;;13.70;99.90;;;;;;5045647;28;20120;-72
2022/10/10 11:28:28;;;;;;;13.38;8.55;;;13.70;99.90;;;;;;5045577;28;20079;-72
2022/10/10 11:31:04;;;;;;;12.45;8.57;;;13.70;99.90;;;;;;5040088;28;20033;-72
2022/10/10 11:33:35;;;;;;;16.77;8.90;;;13.40;99.90;;;;;;5045305;28;20612;-74
2022/10/10 11:36:05;;;;;;;14.85;9.48;;;13.50;99.90;;;;;;5050990;28;20040;-73
2022/10/10 11:38:44;;;;;;;18.02;9.90;;;13.90;99.90;;;;;;5049376;28;20123;-74
2022/10/10 11:41:14;;;;;;;14.23;9.85;;;13.70;99.90;;;;;;5051092;28;20041;-74
2022/10/10 11:44:04;;;;;;;14.82;10.07;;;13.70;99.90;;;;;;5051225;28;20388;-74
2022/10/10 11:46:42;;;;;;;17.17;10.00;;;13.70;99.90;;;;;;5049649;28;20037;-72
2022/10/10 11:49:24;;;;;;;20.90;10.20;;;13.60;99.90;;;;;;5048619;28;20041;-73
2022/10/10 11:51:56;;;;;;;13.20;9.57;;;13.90;99.90;;;;;;5050064;28;20033;-73
2022/10/10 11:54:35;;;;;;;15.00;9.15;;;13.80;99.90;;;;;;5047997;28;20112;-73
2022/10/10 11:57:14;;;;;;;16.15;9.23;;;13.80;99.90;;;;;;5031565;28;20394;-73
2022/10/10 11:59:46;;;;;;;15.65;9.60;;;14.00;99.90;;;;;;5036217;28;20032;-72
2022/10/10 12:02:20;;;;;;;14.85;10.27;;;13.80;99.90;;;;;;5051009;28;20064;-73
2022/10/10 12:04:46;;;;;;;22.20;11.98;;;14.00;99.90;;;;;;5049397;28;20045;-72
2022/10/10 12:07:20;;;;;;;15.38;9.48;;;14.00;99.90;;;;;;5033072;28;20044;-72
2022/10/10 12:09:52;;;;;;;18.02;9.82;;;14.00;99.90;;;;;;5049044;28;20071;-73
2022/10/10 12:12:21;;;;;;;14.52;9.18;;;14.20;99.90;;;;;;5050935;28;20829;-72
2022/10/10 12:14:53;;;;;;;17.13;10.48;;;14.00;99.90;;;;;;5056154;28;20033;-72
2022/10/10 12:17:32;;;;;;;19.13;10.25;;;14.00;99.90;;;;;;5064081;28;20130;-72
2022/10/10 12:20:15;;;;;;;16.10;10.88;;;13.90;99.90;;;;;;5066118;28;20037;-72
2022/10/10 12:22:42;;;;;;;17.08;11.23;;;13.90;99.90;;;;;;5036921;28;20037;-71
2022/10/10 12:25:22;;;;;;;21.75;11.27;;;13.90;99.90;;;;;;5050758;28;20041;-72
2022/10/10 12:28:44;;;;;;;16.20;11.20;;;13.70;99.90;;;;;;5050091;28;20041;-72
2022/10/10 12:31:10;;;;;;;19.65;11.45;;;13.60;99.90;;;;;;5034935;28;20048;-73
2022/10/10 12:33:35;;;;;;;17.98;12.65;;;13.60;99.90;;;;;;5021327;28;20501;-73
2022/10/10 12:36:19;;;;;;;21.92;13.05;;;13.40;99.90;;;;;;5037257;28;20502;-73
2022/10/10 12:39:00;;;;;;;20.42;11.93;;;13.70;99.90;;;;;;5052323;28;20037;-73
2022/10/10 12:41:41;;;;;;;20.63;12.60;;;13.50;99.90;;;;;;5053482;28;20079;-74
2022/10/10 12:44:33;;;;;;;19.05;12.80;;;13.50;99.90;;;;;;5052735;28;20071;-74
2022/10/10 12:47:13;;;;;;;20.10;12.50;;;13.70;99.90;;;;;;5055244;28;20426;-73
2022/10/10 12:50:01;;;;;;;20.65;13.50;;;13.60;99.90;;;;;;5052596;28;20128;-73
2022/10/10 12:52:36;;;;;;;21.15;13.63;;;13.40;99.90;;;;;;5035316;28;20052;-74
2022/10/10 12:55:07;;;;;;;23.10;13.35;;;13.40;99.90;;;;;;5048944;28;20048;-74
2022/10/10 12:57:39;;;;;;;26.40;12.88;;;13.50;99.90;;;;;;5052271;28;20044;-74
2022/10/10 13:00:26;;;;;;;23.27;14.07;;;13.50;99.90;;;;;;5048548;28;20048;-74
2022/10/10 13:02:57;;;;;;;22.42;13.40;;;13.30;99.90;;;;;;5040484;28;20041;-73
2022/10/10 13:05:35;;;;;;;25.52;14.32;;;13.40;99.90;;;;;;5053819;28;20041;-74
2022/10/10 13:08:10;;;;;;;26.27;14.45;;;13.30;99.90;;;;;;5053945;28;20079;-75
2022/10/10 13:10:36;;;;;;;13.38;5.78;;;;;;;;;;5053711;28;20045;-74
2022/10/10 13:13:18;;;;;;;12.50;3.88;;;13.00;99.90;;;;;;5053773;28;20410;-75
2022/10/10 13:15:58;;;;;;;9.63;3.00;;;12.90;99.90;;;;;;5051715;28;20068;-74
2022/10/10 13:18:59;;;;;;;11.52;2.42;;;12.80;99.90;;;;;;5036440;28;20043;-74
2022/10/10 13:21:33;;;;;;;9.07;1.70;;;12.80;99.90;;;;;;4995158;28;20604;-74
2022/10/10 13:24:01;;;;;;;15.63;2.40;;;12.90;99.90;;;;;;5039392;28;20041;-73
2022/10/10 13:26:29;;;;;;;11.15;2.25;;;12.90;99.90;;;;;;5036357;28;20116;-73
2022/10/10 13:28:58;;;;;;;18.38;1.90;;;12.70;99.90;;;;;;5051320;28;20041;-74
2022/10/10 13:31:29;;;;;;;12.98;2.53;;;12.80;99.90;;;;;;5035221;28;20045;-73
2022/10/10 13:34:05;;;;;;;13.00;1.95;;;12.70;99.90;;;;;;5035114;28;20041;-73
2022/10/10 13:36:32;;;;;;;14.07;3.05;;;12.50;99.90;;;;;;5052294;28;20040;-74
2022/10/10 13:38:58;;;;;;;11.25;3.58;;;12.70;99.90;;;;;;5053161;28;20052;-74
2022/10/10 13:41:25;;;;;;;10.27;2.90;;;12.40;99.90;;;;;;5051461;28;20037;-73